sensor_id;sensor_type;location;lat;lon;timestamp;pressure;altitude;pressure_sealevel;temperature;humidity
30744;BME280;17486;46.738;7.622;2023-01-09T00:01:31;93820.50;;;8.18;71.13
30744;BME280;17486;46.738;7.622;2023-01-09T00:03:57;93822.66;;;8.11;71.25
30744;BME280;17486;46.738;7.622;2023-01-09T00:06:22;93818.72;;;8.06;70.86
30744;BME280;17486;46.738;7.622;2023-01-09T00:08:48;93827.31;;;8.06;71.25
30744;BME280;17486;46.738;7.622;2023-01-09T00:11:13;93825.84;;;8.02;71.18
30744;BME280;17486;46.738;7.622;2023-01-09T00:13:38;93826.97;;;7.98;71.15
30744;BME280;17486;46.738;7.622;2023-01-09T00:16:05;93810.03;;;7.92;71.25
30744;BME280;17486;46.738;7.622;2023-01-09T00:18:32;93791.50;;;7.71;71.11
30744;BME280;17486;46.738;7.622;2023-01-09T00:21:05;93791.69;;;7.68;71.32
30744;BME280;17486;46.738;7.622;2023-01-09T00:23:32;93831.22;;;7.85;71.02
30744;BME280;17486;46.738;7.622;2023-01-09T00:26:11;93816.25;;;7.75;70.49
30744;BME280;17486;46.738;7.622;2023-01-09T00:28:37;93819.22;;;7.84;70.36
30744;BME280;17486;46.738;7.622;2023-01-09T00:31:04;93815.63;;;7.86;70.58
30744;BME280;17486;46.738;7.622;2023-01-09T00:33:33;93777.94;;;7.68;70.14
30744;BME280;17486;46.738;7.622;2023-01-09T00:35:59;93799.09;;;7.74;70.83
30744;BME280;17486;46.738;7.622;2023-01-09T00:38:24;93786.91;;;7.62;70.86
30744;BME280;17486;46.738;7.622;2023-01-09T00:40:50;93803.34;;;7.61;71.21
30744;BME280;17486;46.738;7.622;2023-01-09T00:43:16;93784.50;;;7.59;71.38
30744;BME280;17486;46.738;7.622;2023-01-09T00:45:42;93785.69;;;7.53;71.48
30744;BME280;17486;46.738;7.622;2023-01-09T00:48:14;93753.09;;;7.36;70.95
30744;BME280;17486;46.738;7.622;2023-01-09T00:50:48;93791.72;;;7.54;70.51
30744;BME280;17486;46.738;7.622;2023-01-09T00:53:16;93786.00;;;7.49;70.13
30744;BME280;17486;46.738;7.622;2023-01-09T00:55:43;93786.19;;;7.45;70.78
30744;BME280;17486;46.738;7.622;2023-01-09T00:58:08;93798.28;;;7.45;70.73
30744;BME280;17486;46.738;7.622;2023-01-09T01:00:34;93802.44;;;7.47;70.49
30744;BME280;17486;46.738;7.622;2023-01-09T01:03:00;93804.19;;;7.47;70.73
30744;BME280;17486;46.738;7.622;2023-01-09T01:05:25;93797.91;;;7.51;70.81
30744;BME280;17486;46.738;7.622;2023-01-09T01:08:11;93800.75;;;7.46;70.56
30744;BME280;17486;46.738;7.622;2023-01-09T01:10:37;93769.47;;;7.37;71.05
30744;BME280;17486;46.738;7.622;2023-01-09T01:13:02;93794.00;;;7.58;71.12
30744;BME280;17486;46.738;7.622;2023-01-09T01:15:28;93780.06;;;7.61;71.01
30744;BME280;17486;46.738;7.622;2023-01-09T01:17:53;93772.28;;;7.61;71.18
30744;BME280;17486;46.738;7.622;2023-01-09T01:20:19;93737.88;;;7.46;70.86
30744;BME280;17486;46.738;7.622;2023-01-09T01:22:45;93753.25;;;7.62;70.92
30744;BME280;17486;46.738;7.622;2023-01-09T01:25:12;93744.22;;;7.55;70.85
30744;BME280;17486;46.738;7.622;2023-01-09T01:27:39;93769.97;;;7.71;70.83
30744;BME280;17486;46.738;7.622;2023-01-09T01:30:06;93756.16;;;7.57;71.31
30744;BME280;17486;46.738;7.622;2023-01-09T01:32:32;93804.97;;;7.76;70.80
30744;BME280;17486;46.738;7.622;2023-01-09T01:34:58;93785.19;;;7.75;70.57
30744;BME280;17486;46.738;7.622;2023-01-09T01:37:23;93776.53;;;7.62;70.48
30744;BME280;17486;46.738;7.622;2023-01-09T01:39:50;93825.13;;;7.86;70.34
30744;BME280;17486;46.738;7.622;2023-01-09T01:42:15;93827.72;;;7.86;70.09
30744;BME280;17486;46.738;7.622;2023-01-09T01:47:27;93824.03;;;7.75;70.16
30744;BME280;17486;46.738;7.622;2023-01-09T01:49:53;93866.06;;;7.93;70.38
30744;BME280;17486;46.738;7.622;2023-01-09T01:52:19;93891.84;;;7.95;70.41
30744;BME280;17486;46.738;7.622;2023-01-09T01:54:45;93926.44;;;7.94;70.44
30744;BME280;17486;46.738;7.622;2023-01-09T01:57:11;93964.78;;;7.87;70.53
30744;BME280;17486;46.738;7.622;2023-01-09T01:59:48;93949.19;;;7.74;70.61
30744;BME280;17486;46.738;7.622;2023-01-09T02:02:18;93969.44;;;7.68;70.60
30744;BME280;17486;46.738;7.622;2023-01-09T02:04:45;93974.28;;;7.58;70.15
30744;BME280;17486;46.738;7.622;2023-01-09T02:07:10;93963.56;;;7.50;69.36
30744;BME280;17486;46.738;7.622;2023-01-09T02:09:38;93989.88;;;7.42;69.06
30744;BME280;17486;46.738;7.622;2023-01-09T02:12:20;94057.84;;;7.60;68.11
30744;BME280;17486;46.738;7.622;2023-01-09T02:15:02;94038.06;;;7.28;68.11
30744;BME280;17486;46.738;7.622;2023-01-09T02:37:43;94117.06;;;7.18;68.75
30744;BME280;17486;46.738;7.622;2023-01-09T02:40:46;94131.31;;;7.09;68.56
30744;BME280;17486;46.738;7.622;2023-01-09T02:43:14;94158.25;;;7.05;68.09
30744;BME280;17486;46.738;7.622;2023-01-09T02:45:40;94153.56;;;6.96;67.91
30744;BME280;17486;46.738;7.622;2023-01-09T02:48:09;94173.16;;;6.84;68.40
30744;BME280;17486;46.738;7.622;2023-01-09T02:50:41;94138.47;;;6.55;68.77
30744;BME280;17486;46.738;7.622;2023-01-09T02:53:25;94170.00;;;6.61;68.01
30744;BME280;17486;46.738;7.622;2023-01-09T03:01:33;94180.75;;;6.54;68.99
30744;BME280;17486;46.738;7.622;2023-01-09T03:04:18;94176.50;;;6.53;68.53
30744;BME280;17486;46.738;7.622;2023-01-09T03:07:01;94191.81;;;6.56;67.97
30744;BME280;17486;46.738;7.622;2023-01-09T03:09:32;94194.41;;;6.56;68.04
30744;BME280;17486;46.738;7.622;2023-01-09T03:12:03;94170.94;;;6.43;68.04
30744;BME280;17486;46.738;7.622;2023-01-09T03:14:32;94204.44;;;6.62;67.80
30744;BME280;17486;46.738;7.622;2023-01-09T03:17:03;94183.72;;;6.46;68.04
30744;BME280;17486;46.738;7.622;2023-01-09T03:19:31;94220.38;;;6.70;67.78
30744;BME280;17486;46.738;7.622;2023-01-09T03:21:58;94222.22;;;6.68;68.18
30744;BME280;17486;46.738;7.622;2023-01-09T03:24:24;94228.50;;;6.62;67.46
30744;BME280;17486;46.738;7.622;2023-01-09T03:26:50;94227.97;;;6.56;67.87
30744;BME280;17486;46.738;7.622;2023-01-09T03:29:18;94238.56;;;6.51;68.05
30744;BME280;17486;46.738;7.622;2023-01-09T03:31:43;94225.88;;;6.46;68.33
30744;BME280;17486;46.738;7.622;2023-01-09T03:34:09;94222.97;;;6.53;68.10
30744;BME280;17486;46.738;7.622;2023-01-09T03:36:34;94170.88;;;6.27;67.60
30744;BME280;17486;46.738;7.622;2023-01-09T03:38:59;94211.03;;;6.33;68.02
30744;BME280;17486;46.738;7.622;2023-01-09T03:41:25;94226.78;;;6.28;68.47
30744;BME280;17486;46.738;7.622;2023-01-09T03:43:50;94237.31;;;6.23;68.23
30744;BME280;17486;46.738;7.622;2023-01-09T03:46:16;94216.31;;;6.13;68.46
30744;BME280;17486;46.738;7.622;2023-01-09T03:48:41;94265.97;;;6.36;67.91
30744;BME280;17486;46.738;7.622;2023-01-09T03:51:07;94258.91;;;6.40;68.04
30744;BME280;17486;46.738;7.622;2023-01-09T03:53:32;94245.75;;;6.27;68.65
30744;BME280;17486;46.738;7.622;2023-01-09T03:55:58;94258.91;;;6.40;68.20
30744;BME280;17486;46.738;7.622;2023-01-09T03:58:24;94245.00;;;6.25;67.28
30744;BME280;17486;46.738;7.622;2023-01-09T04:00:50;94229.56;;;6.23;67.10
30744;BME280;17486;46.738;7.622;2023-01-09T04:03:18;94272.19;;;6.50;66.26
30744;BME280;17486;46.738;7.622;2023-01-09T04:05:45;94275.72;;;6.49;66.27
30744;BME280;17486;46.738;7.622;2023-01-09T04:08:11;94236.03;;;6.32;66.62
30744;BME280;17486;46.738;7.622;2023-01-09T04:10:36;94279.66;;;6.56;66.16
30744;BME280;17486;46.738;7.622;2023-01-09T04:13:02;94298.34;;;6.61;65.60
30744;BME280;17486;46.738;7.622;2023-01-09T04:15:27;94271.69;;;6.60;65.83
30744;BME280;17486;46.738;7.622;2023-01-09T04:17:53;94278.56;;;6.60;66.38
30744;BME280;17486;46.738;7.622;2023-01-09T04:20:18;94289.06;;;6.57;66.11
30744;BME280;17486;46.738;7.622;2023-01-09T04:22:44;94250.38;;;6.38;66.30
30744;BME280;17486;46.738;7.622;2023-01-09T04:25:09;94283.63;;;6.63;66.77
30744;BME280;17486;46.738;7.622;2023-01-09T04:27:35;94254.72;;;6.37;65.36
30744;BME280;17486;46.738;7.622;2023-01-09T04:30:00;94298.19;;;6.64;66.16
30744;BME280;17486;46.738;7.622;2023-01-09T04:32:26;94307.31;;;6.71;65.91
30744;BME280;17486;46.738;7.622;2023-01-09T04:34:53;94336.25;;;6.78;65.80
30744;BME280;17486;46.738;7.622;2023-01-09T04:37:18;94347.13;;;6.85;66.23
30744;BME280;17486;46.738;7.622;2023-01-09T04:39:44;94321.81;;;6.74;66.21
30744;BME280;17486;46.738;7.622;2023-01-09T04:42:10;94367.22;;;6.97;65.72
30744;BME280;17486;46.738;7.622;2023-01-09T04:44:36;94315.66;;;6.76;66.37
30744;BME280;17486;46.738;7.622;2023-01-09T04:47:01;94356.78;;;6.99;66.22
30744;BME280;17486;46.738;7.622;2023-01-09T04:49:27;94327.44;;;6.82;65.98
30744;BME280;17486;46.738;7.622;2023-01-09T04:51:53;94322.97;;;6.86;65.66
30744;BME280;17486;46.738;7.622;2023-01-09T04:54:18;94349.13;;;6.97;66.51
30744;BME280;17486;46.738;7.622;2023-01-09T04:56:44;94354.28;;;6.97;66.08
30744;BME280;17486;46.738;7.622;2023-01-09T04:59:10;94345.00;;;6.75;66.50
30744;BME280;17486;46.738;7.622;2023-01-09T05:01:35;94394.88;;;6.95;65.85
30744;BME280;17486;46.738;7.622;2023-01-09T05:04:02;94364.91;;;6.73;66.23
30744;BME280;17486;46.738;7.622;2023-01-09T05:06:28;94392.66;;;6.87;66.00
30744;BME280;17486;46.738;7.622;2023-01-09T05:08:53;94369.16;;;6.74;65.88
30744;BME280;17486;46.738;7.622;2023-01-09T05:11:21;94409.78;;;6.90;66.17
30744;BME280;17486;46.738;7.622;2023-01-09T05:13:46;94406.44;;;6.88;66.07
30744;BME280;17486;46.738;7.622;2023-01-09T05:16:11;94404.75;;;6.87;66.26
30744;BME280;17486;46.738;7.622;2023-01-09T05:18:37;94402.09;;;6.88;65.98
30744;BME280;17486;46.738;7.622;2023-01-09T05:21:03;94400.72;;;6.81;65.74
30744;BME280;17486;46.738;7.622;2023-01-09T05:23:28;94361.41;;;6.57;65.58
30744;BME280;17486;46.738;7.622;2023-01-09T05:25:54;94406.47;;;6.69;65.96
30744;BME280;17486;46.738;7.622;2023-01-09T05:28:19;94396.34;;;6.64;66.49
30744;BME280;17486;46.738;7.622;2023-01-09T05:30:46;94390.72;;;6.56;66.85
30744;BME280;17486;46.738;7.622;2023-01-09T05:33:11;94395.34;;;6.49;66.43
30744;BME280;17486;46.738;7.622;2023-01-09T05:35:36;94405.13;;;6.42;66.95
30744;BME280;17486;46.738;7.622;2023-01-09T05:38:02;94405.28;;;6.39;67.07
30744;BME280;17486;46.738;7.622;2023-01-09T05:40:27;94411.28;;;6.40;66.74
30744;BME280;17486;46.738;7.622;2023-01-09T05:42:52;94428.38;;;6.42;66.69
30744;BME280;17486;46.738;7.622;2023-01-09T05:45:18;94423.06;;;6.45;66.71
30744;BME280;17486;46.738;7.622;2023-01-09T05:47:44;94434.09;;;6.49;66.64
30744;BME280;17486;46.738;7.622;2023-01-09T05:50:11;94406.94;;;6.40;67.20
30744;BME280;17486;46.738;7.622;2023-01-09T05:52:36;94426.28;;;6.51;66.58
30744;BME280;17486;46.738;7.622;2023-01-09T05:55:02;94382.34;;;6.33;66.83
30744;BME280;17486;46.738;7.622;2023-01-09T05:57:28;94413.34;;;6.51;66.36
30744;BME280;17486;46.738;7.622;2023-01-09T05:59:53;94398.91;;;6.46;66.80
30744;BME280;17486;46.738;7.622;2023-01-09T06:02:19;94370.53;;;6.27;65.95
30744;BME280;17486;46.738;7.622;2023-01-09T06:04:44;94390.63;;;6.40;65.73
30744;BME280;17486;46.738;7.622;2023-01-09T06:07:10;94392.06;;;6.45;65.48
30744;BME280;17486;46.738;7.622;2023-01-09T06:09:35;94395.50;;;6.46;65.62
30744;BME280;17486;46.738;7.622;2023-01-09T06:12:01;94392.22;;;6.42;65.13
30744;BME280;17486;46.738;7.622;2023-01-09T06:14:26;94400.66;;;6.46;65.54
30744;BME280;17486;46.738;7.622;2023-01-09T06:16:51;94393.06;;;6.43;65.55
30744;BME280;17486;46.738;7.622;2023-01-09T06:19:17;94390.25;;;6.47;64.98
30744;BME280;17486;46.738;7.622;2023-01-09T06:21:42;94391.31;;;6.43;65.07
30744;BME280;17486;46.738;7.622;2023-01-09T06:24:08;94374.09;;;6.25;65.00
30744;BME280;17486;46.738;7.622;2023-01-09T06:26:33;94376.66;;;6.25;65.20
30744;BME280;17486;46.738;7.622;2023-01-09T06:28:59;94391.56;;;6.20;65.07
30744;BME280;17486;46.738;7.622;2023-01-09T06:31:26;94392.94;;;6.27;65.40
30744;BME280;17486;46.738;7.622;2023-01-09T06:33:52;94399.91;;;6.25;65.49
30744;BME280;17486;46.738;7.622;2023-01-09T06:36:18;94379.56;;;6.00;65.68
30744;BME280;17486;46.738;7.622;2023-01-09T06:38:44;94412.75;;;6.07;65.86
30744;BME280;17486;46.738;7.622;2023-01-09T06:41:10;94407.13;;;5.99;65.75
30744;BME280;17486;46.738;7.622;2023-01-09T06:43:35;94379.38;;;5.84;66.10
30744;BME280;17486;46.738;7.622;2023-01-09T06:46:01;94384.69;;;5.80;65.56
30744;BME280;17486;46.738;7.622;2023-01-09T06:48:26;94390.88;;;5.76;65.84
30744;BME280;17486;46.738;7.622;2023-01-09T06:50:52;94391.81;;;5.75;66.03
30744;BME280;17486;46.738;7.622;2023-01-09T06:53:18;94397.03;;;5.74;66.68
30744;BME280;17486;46.738;7.622;2023-01-09T06:55:44;94428.91;;;5.92;66.24
30744;BME280;17486;46.738;7.622;2023-01-09T06:58:10;94434.06;;;5.92;66.39
30744;BME280;17486;46.738;7.622;2023-01-09T07:00:36;94419.97;;;5.80;66.42
30744;BME280;17486;46.738;7.622;2023-01-09T07:03:02;94435.13;;;5.88;66.13
30744;BME280;17486;46.738;7.622;2023-01-09T07:05:28;94420.19;;;5.75;66.58
30744;BME280;17486;46.738;7.622;2023-01-09T07:07:54;94427.28;;;5.70;66.18
30744;BME280;17486;46.738;7.622;2023-01-09T07:10:21;94412.53;;;5.53;66.16
30744;BME280;17486;46.738;7.622;2023-01-09T07:12:47;94416.16;;;5.49;66.54
30744;BME280;17486;46.738;7.622;2023-01-09T07:15:12;94399.66;;;5.32;67.33
30744;BME280;17486;46.738;7.622;2023-01-09T07:17:37;94392.56;;;5.38;66.85
30744;BME280;17486;46.738;7.622;2023-01-09T07:20:03;94408.53;;;5.46;67.65
30744;BME280;17486;46.738;7.622;2023-01-09T07:22:29;94406.81;;;5.46;67.27
30744;BME280;17486;46.738;7.622;2023-01-09T07:24:54;94405.22;;;5.44;66.97
30744;BME280;17486;46.738;7.622;2023-01-09T07:27:19;94373.31;;;5.26;67.53
30744;BME280;17486;46.738;7.622;2023-01-09T07:29:46;94372.34;;;5.28;67.86
30744;BME280;17486;46.738;7.622;2023-01-09T07:32:11;94404.03;;;5.51;67.54
30744;BME280;17486;46.738;7.622;2023-01-09T07:34:37;94375.69;;;5.30;67.24
30744;BME280;17486;46.738;7.622;2023-01-09T07:37:02;94410.88;;;5.52;67.17
30744;BME280;17486;46.738;7.622;2023-01-09T07:39:27;94365.25;;;5.34;68.07
30744;BME280;17486;46.738;7.622;2023-01-09T07:41:53;94360.03;;;5.35;67.87
30744;BME280;17486;46.738;7.622;2023-01-09T07:44:18;94383.13;;;5.57;68.10
30744;BME280;17486;46.738;7.622;2023-01-09T07:46:44;94370.25;;;5.57;67.65
30744;BME280;17486;46.738;7.622;2023-01-09T07:49:09;94377.16;;;5.57;68.07
30744;BME280;17486;46.738;7.622;2023-01-09T07:51:35;94382.22;;;5.58;67.92
30744;BME280;17486;46.738;7.622;2023-01-09T07:54:03;94371.59;;;5.66;65.97
30744;BME280;17486;46.738;7.622;2023-01-09T07:56:28;94379.16;;;5.69;64.00
30744;BME280;17486;46.738;7.622;2023-01-09T07:58:54;94372.03;;;5.55;63.87
30744;BME280;17486;46.738;7.622;2023-01-09T08:01:19;94369.91;;;5.65;62.37
30744;BME280;17486;46.738;7.622;2023-01-09T08:03:44;94385.50;;;5.62;61.35
30744;BME280;17486;46.738;7.622;2023-01-09T08:06:10;94383.06;;;5.59;62.10
30744;BME280;17486;46.738;7.622;2023-01-09T08:08:35;94346.09;;;5.39;62.45
30744;BME280;17486;46.738;7.622;2023-01-09T08:11:00;94353.94;;;5.57;63.17
30744;BME280;17486;46.738;7.622;2023-01-09T08:13:26;94368.78;;;5.71;62.56
30744;BME280;17486;46.738;7.622;2023-01-09T08:15:51;94368.44;;;5.78;62.39
30744;BME280;17486;46.738;7.622;2023-01-09T08:18:17;94343.13;;;5.68;63.28
30744;BME280;17486;46.738;7.622;2023-01-09T08:20:42;94376.31;;;5.94;63.00
30744;BME280;17486;46.738;7.622;2023-01-09T08:23:07;94383.00;;;6.00;63.70
30744;BME280;17486;46.738;7.622;2023-01-09T08:25:33;94386.94;;;6.07;63.63
30744;BME280;17486;46.738;7.622;2023-01-09T08:27:58;94386.19;;;6.05;62.80
30744;BME280;17486;46.738;7.622;2023-01-09T08:30:24;94405.66;;;6.12;62.68
30744;BME280;17486;46.738;7.622;2023-01-09T08:32:50;94367.75;;;5.94;61.81
30744;BME280;17486;46.738;7.622;2023-01-09T08:35:16;94363.34;;;5.96;62.26
30744;BME280;17486;46.738;7.622;2023-01-09T08:37:43;94381.25;;;6.20;61.93
30744;BME280;17486;46.738;7.622;2023-01-09T08:40:10;94344.03;;;6.05;61.45
30744;BME280;17486;46.738;7.622;2023-01-09T08:42:35;94351.09;;;6.01;61.29
30744;BME280;17486;46.738;7.622;2023-01-09T08:45:19;94350.66;;;6.10;61.53
30744;BME280;17486;46.738;7.622;2023-01-09T08:48:04;94380.66;;;6.32;61.09
30744;BME280;17486;46.738;7.622;2023-01-09T08:50:29;94377.00;;;6.36;60.47
30744;BME280;17486;46.738;7.622;2023-01-09T08:52:55;94370.03;;;6.38;60.26
30744;BME280;17486;46.738;7.622;2023-01-09T08:55:20;94336.22;;;6.25;60.89
30744;BME280;17486;46.738;7.622;2023-01-09T08:57:50;94332.78;;;6.25;59.80
30744;BME280;17486;46.738;7.622;2023-01-09T09:00:17;94332.72;;;6.26;59.98
30744;BME280;17486;46.738;7.622;2023-01-09T09:02:43;94371.84;;;6.36;59.49
30744;BME280;17486;46.738;7.622;2023-01-09T09:05:08;94377.09;;;6.35;58.67
30744;BME280;17486;46.738;7.622;2023-01-09T09:07:34;94357.22;;;6.18;58.56
30744;BME280;17486;46.738;7.622;2023-01-09T09:09:59;94353.19;;;6.12;59.32
30744;BME280;17486;46.738;7.622;2023-01-09T09:12:24;94381.47;;;6.33;58.83
30744;BME280;17486;46.738;7.622;2023-01-09T09:14:50;94380.06;;;6.44;58.85
30744;BME280;17486;46.738;7.622;2023-01-09T09:17:34;94385.09;;;6.47;58.67
30744;BME280;17486;46.738;7.622;2023-01-09T09:20:00;94335.31;;;6.26;58.36
30744;BME280;17486;46.738;7.622;2023-01-09T09:22:26;94342.53;;;6.37;58.03
30744;BME280;17486;46.738;7.622;2023-01-09T09:24:51;94352.44;;;6.64;57.51
30744;BME280;17486;46.738;7.622;2023-01-09T09:27:17;94354.88;;;6.67;57.57
30744;BME280;17486;46.738;7.622;2023-01-09T09:29:42;94318.56;;;6.53;56.85
30744;BME280;17486;46.738;7.622;2023-01-09T09:32:07;94321.75;;;6.58;56.91
30744;BME280;17486;46.738;7.622;2023-01-09T09:34:33;94361.03;;;6.82;57.45
30744;BME280;17486;46.738;7.622;2023-01-09T09:36:58;94331.91;;;6.78;57.05
30744;BME280;17486;46.738;7.622;2023-01-09T09:39:24;94360.81;;;7.04;57.74
30744;BME280;17486;46.738;7.622;2023-01-09T09:55:32;94362.97;;;7.47;54.34
30744;BME280;17486;46.738;7.622;2023-01-09T09:58:00;94366.91;;;7.70;54.10
30744;BME280;17486;46.738;7.622;2023-01-09T10:00:26;94360.44;;;7.95;53.71
30744;BME280;17486;46.738;7.622;2023-01-09T10:03:00;94352.63;;;8.12;53.67
30744;BME280;17486;46.738;7.622;2023-01-09T10:05:38;94350.78;;;8.46;52.98
30744;BME280;17486;46.738;7.622;2023-01-09T10:08:18;94367.38;;;8.74;52.54
30744;BME280;17486;46.738;7.622;2023-01-09T10:10:54;94330.28;;;8.88;51.99
30744;BME280;17486;46.738;7.622;2023-01-09T10:13:23;94355.31;;;9.34;51.73
30744;BME280;17486;46.738;7.622;2023-01-09T10:18:58;94352.69;;;10.06;48.71
30744;BME280;17486;46.738;7.622;2023-01-09T10:24:55;94327.56;;;10.34;46.18
30744;BME280;17486;46.738;7.622;2023-01-09T10:27:33;94336.16;;;10.49;46.06
30744;BME280;17486;46.738;7.622;2023-01-09T10:38:08;94308.09;;;10.82;43.02
30744;BME280;17486;46.738;7.622;2023-01-09T10:40:49;94310.81;;;10.93;40.29
30744;BME280;17486;46.738;7.622;2023-01-09T10:43:28;94324.16;;;11.14;40.98
30744;BME280;17486;46.738;7.622;2023-01-09T10:45:59;94321.56;;;11.14;41.55
30744;BME280;17486;46.738;7.622;2023-01-09T10:48:34;94312.19;;;11.24;41.61
30744;BME280;17486;46.738;7.622;2023-01-09T10:51:02;94309.09;;;11.45;40.94
30744;BME280;17486;46.738;7.622;2023-01-09T10:53:38;94286.19;;;11.50;40.61
30744;BME280;17486;46.738;7.622;2023-01-09T10:56:13;94306.63;;;11.93;40.22
30744;BME280;17486;46.738;7.622;2023-01-09T10:58:43;94300.03;;;12.14;39.60
30744;BME280;17486;46.738;7.622;2023-01-09T11:01:09;94313.81;;;12.40;39.67
30744;BME280;17486;46.738;7.622;2023-01-09T11:03:34;94313.09;;;12.62;39.65
30744;BME280;17486;46.738;7.622;2023-01-09T11:06:00;94310.13;;;12.67;39.11
30744;BME280;17486;46.738;7.622;2023-01-09T11:08:34;94321.50;;;12.90;39.27
30744;BME280;17486;46.738;7.622;2023-01-09T11:11:04;94292.78;;;12.90;39.16
30744;BME280;17486;46.738;7.622;2023-01-09T11:13:34;94324.41;;;13.09;37.98
30744;BME280;17486;46.738;7.622;2023-01-09T11:16:16;94328.94;;;13.19;38.11
30744;BME280;17486;46.738;7.622;2023-01-09T11:18:59;94317.59;;;13.31;37.43
30744;BME280;17486;46.738;7.622;2023-01-09T11:23:50;94348.47;;;13.37;36.58
30744;BME280;17486;46.738;7.622;2023-01-09T11:26:26;94358.19;;;13.35;35.94
30744;BME280;17486;46.738;7.622;2023-01-09T11:29:14;94361.00;;;13.32;37.03
30744;BME280;17486;46.738;7.622;2023-01-09T11:31:42;94343.41;;;13.12;37.20
30744;BME280;17486;46.738;7.622;2023-01-09T11:34:19;94369.72;;;12.97;38.00
30744;BME280;17486;46.738;7.622;2023-01-09T11:36:46;94362.72;;;12.73;38.63
30744;BME280;17486;46.738;7.622;2023-01-09T11:39:22;94368.81;;;12.61;39.24
30744;BME280;17486;46.738;7.622;2023-01-09T11:41:53;94380.94;;;12.49;39.73
30744;BME280;17486;46.738;7.622;2023-01-09T11:44:20;94353.84;;;12.39;40.38
30744;BME280;17486;46.738;7.622;2023-01-09T11:46:46;94323.63;;;12.36;41.02
30744;BME280;17486;46.738;7.622;2023-01-09T11:51:37;94365.66;;;12.44;40.86
30744;BME280;17486;46.738;7.622;2023-01-09T11:56:48;94358.81;;;12.18;41.08
30744;BME280;17486;46.738;7.622;2023-01-09T11:59:17;94332.16;;;12.01;41.96
30744;BME280;17486;46.738;7.622;2023-01-09T12:05:00;94356.34;;;12.40;42.35
30744;BME280;17486;46.738;7.622;2023-01-09T12:08:03;94372.78;;;12.30;40.76
30744;BME280;17486;46.738;7.622;2023-01-09T12:13:50;94339.44;;;12.09;40.86
30744;BME280;17486;46.738;7.622;2023-01-09T12:16:30;94350.56;;;12.24;40.86
30744;BME280;17486;46.738;7.622;2023-01-09T12:25:05;94314.88;;;11.74;40.42
30744;BME280;17486;46.738;7.622;2023-01-09T12:28:03;94368.84;;;11.85;40.32
30744;BME280;17486;46.738;7.622;2023-01-09T12:33:25;94363.66;;;11.59;39.70
30744;BME280;17486;46.738;7.622;2023-01-09T12:36:08;94369.59;;;11.49;40.13
30744;BME280;17486;46.738;7.622;2023-01-09T12:38:47;94343.94;;;11.17;39.92
30744;BME280;17486;46.738;7.622;2023-01-09T12:46:51;94342.03;;;10.93;40.50
30744;BME280;17486;46.738;7.622;2023-01-09T12:49:29;94337.75;;;10.92;40.92
30744;BME280;17486;46.738;7.622;2023-01-09T12:54:52;94358.72;;;11.03;41.40
30744;BME280;17486;46.738;7.622;2023-01-09T12:57:28;94357.31;;;10.98;40.70
30744;BME280;17486;46.738;7.622;2023-01-09T13:06:05;94345.56;;;10.92;41.44
30744;BME280;17486;46.738;7.622;2023-01-09T13:08:36;94315.47;;;10.75;41.66
30744;BME280;17486;46.738;7.622;2023-01-09T13:11:16;94365.25;;;10.96;41.90
30744;BME280;17486;46.738;7.622;2023-01-09T13:13:46;94356.09;;;11.03;42.72
30744;BME280;17486;46.738;7.622;2023-01-09T13:16:25;94336.50;;;10.98;41.74
30744;BME280;17486;46.738;7.622;2023-01-09T13:19:02;94334.63;;;10.87;41.09
30744;BME280;17486;46.738;7.622;2023-01-09T13:21:30;94326.41;;;10.80;42.19
30744;BME280;17486;46.738;7.622;2023-01-09T13:24:15;94325.75;;;10.76;42.77
30744;BME280;17486;46.738;7.622;2023-01-09T13:27:06;94294.00;;;10.71;42.69
30744;BME280;17486;46.738;7.622;2023-01-09T13:29:39;94291.13;;;10.76;42.95
30744;BME280;17486;46.738;7.622;2023-01-09T13:34:58;94303.09;;;10.78;43.74
30744;BME280;17486;46.738;7.622;2023-01-09T13:37:33;94311.59;;;10.68;43.98
30744;BME280;17486;46.738;7.622;2023-01-09T13:40:19;94294.88;;;10.44;44.19
30744;BME280;17486;46.738;7.622;2023-01-09T13:43:02;94318.63;;;10.53;44.09
30744;BME280;17486;46.738;7.622;2023-01-09T13:45:31;94297.41;;;10.32;44.13
30744;BME280;17486;46.738;7.622;2023-01-09T13:50:40;94316.41;;;10.32;44.55
30744;BME280;17486;46.738;7.622;2023-01-09T13:58:29;94359.38;;;9.96;45.32
30744;BME280;17486;46.738;7.622;2023-01-09T14:01:01;94363.25;;;9.89;44.58
30744;BME280;17486;46.738;7.622;2023-01-09T14:03:32;94374.06;;;9.83;44.43
30744;BME280;17486;46.738;7.622;2023-01-09T14:08:28;94393.69;;;9.58;45.24
30744;BME280;17486;46.738;7.622;2023-01-09T14:13:28;94404.22;;;9.40;45.58
30744;BME280;17486;46.738;7.622;2023-01-09T14:16:04;94433.59;;;9.26;45.90
30744;BME280;17486;46.738;7.622;2023-01-09T14:18:34;94433.97;;;9.04;46.99
30744;BME280;17486;46.738;7.622;2023-01-09T14:21:02;94453.81;;;9.05;47.59
30744;BME280;17486;46.738;7.622;2023-01-09T14:23:35;94462.09;;;8.96;48.21
30744;BME280;17486;46.738;7.622;2023-01-09T14:26:02;94447.72;;;8.74;48.42
30744;BME280;17486;46.738;7.622;2023-01-09T14:28:32;94465.41;;;8.52;49.91
30744;BME280;17486;46.738;7.622;2023-01-09T14:33:29;94481.09;;;7.82;52.38
30744;BME280;17486;46.738;7.622;2023-01-09T14:38:31;94505.38;;;7.44;53.19
30744;BME280;17486;46.738;7.622;2023-01-09T14:43:56;94558.00;;;7.44;54.29
30744;BME280;17486;46.738;7.622;2023-01-09T14:46:25;94481.59;;;7.20;55.01
30744;BME280;17486;46.738;7.622;2023-01-09T14:49:11;94511.56;;;7.24;55.10
30744;BME280;17486;46.738;7.622;2023-01-09T14:51:42;94524.22;;;7.11;54.97
30744;BME280;17486;46.738;7.622;2023-01-09T14:54:31;94533.88;;;7.07;55.41
30744;BME280;17486;46.738;7.622;2023-01-09T14:56:57;94539.91;;;7.08;56.10
30744;BME280;17486;46.738;7.622;2023-01-09T14:59:26;94546.06;;;7.05;56.80
30744;BME280;17486;46.738;7.622;2023-01-09T15:01:52;94518.97;;;6.76;56.47
30744;BME280;17486;46.738;7.622;2023-01-09T15:04:32;94550.59;;;6.81;58.07
30744;BME280;17486;46.738;7.622;2023-01-09T15:07:00;94538.69;;;6.59;58.21
30744;BME280;17486;46.738;7.622;2023-01-09T15:11:57;94551.69;;;6.18;58.91
30744;BME280;17486;46.738;7.622;2023-01-09T15:14:30;94562.94;;;6.36;59.92
30744;BME280;17486;46.738;7.622;2023-01-09T15:16:57;94558.19;;;6.27;59.35
30744;BME280;17486;46.738;7.622;2023-01-09T15:19:24;94546.78;;;5.91;60.33